createdAt,value
2024-03-05T05:00:37.289Z,8.69
2024-03-05T05:04:39.973Z,8.76
2024-03-05T05:08:42.492Z,8.81
2024-03-05T05:12:47.096Z,8.90
2024-03-05T05:16:50.972Z,8.76
2024-03-05T05:20:53.615Z,8.73
2024-03-05T05:24:56.718Z,8.77
2024-03-05T05:28:59.740Z,8.84
2024-03-05T05:33:04.526Z,8.86
2024-03-05T05:37:07.611Z,8.83
2024-03-05T05:41:10.485Z,8.69
2024-03-05T05:45:13.470Z,8.65
2024-03-05T05:49:21.036Z,8.58
2024-03-05T05:53:24.036Z,8.71
2024-03-05T05:57:26.482Z,8.79
2024-03-05T06:01:29.364Z,8.79
2024-03-05T06:05:35.996Z,8.74
2024-03-05T06:09:41.551Z,8.81
2024-03-05T06:13:44.230Z,8.88
2024-03-05T06:17:47.363Z,8.95
2024-03-05T06:21:51.155Z,8.97
2024-03-05T06:25:53.670Z,8.89
2024-03-05T06:29:56.657Z,8.75
2024-03-05T06:33:59.125Z,8.71
2024-03-05T06:38:04.426Z,8.67
2024-03-05T06:42:08.888Z,8.78
2024-03-05T06:46:14.454Z,8.96
2024-03-05T06:50:20.578Z,9.07
2024-03-05T06:54:42.007Z,9.12
2024-03-05T06:58:45.870Z,9.16
2024-03-05T07:02:48.752Z,9.20
2024-03-05T07:06:51.454Z,9.24
2024-03-05T07:10:55.600Z,9.23
2024-03-05T07:14:58.096Z,9.16
2024-03-05T07:19:02.281Z,9.14
2024-03-05T07:23:05.056Z,9.15
2024-03-05T07:27:09.442Z,9.16
2024-03-05T07:31:12.125Z,9.37
2024-03-05T07:35:14.856Z,9.52
2024-03-05T07:39:18.675Z,9.47
2024-03-05T07:43:22.543Z,9.39
2024-03-05T07:47:25.048Z,9.34
2024-03-05T07:51:29.550Z,9.33
2024-03-05T07:55:45.741Z,9.31
2024-03-05T07:59:54.560Z,9.57
2024-03-05T08:03:57.993Z,9.52
2024-03-05T08:08:00.931Z,9.52
2024-03-05T08:12:03.991Z,9.55
2024-03-05T08:16:10.988Z,9.58
2024-03-05T08:20:14.149Z,9.44
2024-03-05T08:24:16.736Z,9.45
2024-03-05T08:28:19.270Z,9.53
2024-03-05T08:32:23.379Z,9.43
2024-03-05T08:36:26.886Z,9.52
2024-03-05T08:40:33.587Z,9.53
2024-03-05T08:44:36.337Z,9.48
2024-03-05T08:48:41.444Z,9.34
2024-03-05T08:52:44.806Z,9.27
2024-03-05T08:56:47.574Z,9.37
2024-03-05T09:00:51.725Z,9.21
2024-03-05T09:04:55.656Z,9.11
2024-03-05T09:08:58.173Z,9.01
2024-03-05T09:13:01.066Z,9.06
2024-03-05T09:17:04.243Z,8.87
2024-03-05T09:21:08.486Z,8.87
2024-03-05T09:25:11.005Z,9.03
2024-03-05T09:29:16.269Z,9.13
2024-03-05T09:33:19.082Z,9.18
2024-03-05T09:37:23.162Z,9.22
2024-03-05T09:41:26.739Z,9.28
2024-03-05T09:45:31.622Z,9.31
2024-03-05T09:49:34.176Z,9.24
2024-03-05T09:53:38.221Z,9.18
2024-03-05T09:57:41.936Z,9.07
2024-03-05T10:01:46.311Z,9.01
2024-03-05T10:05:48.789Z,9.01
2024-03-05T10:10:03.031Z,8.97
2024-03-05T10:14:06.544Z,9.02
2024-03-05T10:18:09.818Z,8.95
2024-03-05T10:22:12.960Z,8.87
2024-03-05T10:26:25.611Z,8.83
2024-03-05T10:30:33.364Z,8.78
2024-03-05T10:34:43.668Z,8.81
2024-03-05T10:38:46.146Z,8.81
2024-03-05T10:42:52.317Z,8.76
2024-03-05T10:46:57.204Z,8.91
2024-03-05T10:51:01.483Z,9.05
2024-03-05T10:55:06.561Z,9.13
2024-03-05T10:59:24.939Z,9.17
2024-03-05T11:03:32.809Z,9.11
2024-03-05T11:07:35.486Z,9.09
2024-03-05T11:11:38.922Z,9.09
2024-03-05T11:15:43.560Z,9.03
2024-03-05T11:19:46.773Z,9.03
2024-03-05T11:23:55.676Z,9.11
2024-03-05T11:27:59.646Z,9.16
2024-03-05T11:32:05.215Z,9.12
2024-03-05T11:36:15.307Z,9.34
2024-03-05T11:40:18.553Z,9.38
2024-03-05T11:44:36.490Z,9.04
2024-03-05T11:48:40.533Z,8.99
2024-03-05T11:52:43.270Z,8.93
2024-03-05T11:56:46.601Z,9.20
2024-03-05T12:00:49.070Z,9.37
2024-03-05T12:04:53.026Z,9.47
2024-03-05T12:08:57.969Z,9.65
2024-03-05T12:13:01.822Z,9.68
2024-03-05T12:17:08.287Z,9.72
2024-03-05T12:21:12.617Z,9.74
2024-03-05T12:25:15.312Z,9.51
2024-03-05T12:29:26.840Z,9.30
2024-03-05T12:33:31.500Z,9.49
2024-03-05T12:37:37.080Z,9.57
2024-03-05T12:41:41.810Z,9.65
2024-03-05T12:45:47.116Z,9.70
2024-03-05T12:49:50.331Z,9.70
2024-03-05T12:54:02.198Z,9.72
2024-03-05T12:58:08.463Z,9.69
2024-03-05T13:02:11.284Z,9.59
2024-03-05T13:06:14.132Z,9.55
2024-03-05T13:10:18.390Z,9.54
2024-03-05T13:14:23.083Z,9.47
2024-03-05T13:18:27.063Z,9.48
2024-03-05T13:22:29.535Z,9.47
2024-03-05T13:26:34.397Z,9.41
2024-03-05T13:30:36.855Z,9.44
2024-03-05T13:34:39.373Z,9.54
2024-03-05T13:38:41.905Z,9.59
2024-03-05T13:42:46.464Z,9.80
2024-03-05T13:46:51.165Z,9.84
2024-03-05T13:50:54.027Z,9.70
2024-03-05T13:54:56.555Z,9.92
2024-03-05T13:59:00.972Z,9.85
2024-03-05T14:03:03.678Z,10.01
2024-03-05T14:07:06.433Z,9.88
2024-03-05T14:11:08.966Z,9.76
2024-03-05T14:15:20.869Z,9.82
2024-03-05T14:19:24.398Z,9.91
2024-03-05T14:23:26.951Z,9.92
2024-03-05T14:27:29.436Z,9.80
2024-03-05T14:31:34.531Z,9.72
2024-03-05T14:35:37.716Z,9.55
2024-03-05T14:39:40.272Z,9.52
2024-03-05T14:43:42.802Z,9.51
2024-03-05T14:47:47.687Z,9.43
2024-03-05T14:51:50.245Z,9.43
2024-03-05T14:55:52.945Z,9.33
2024-03-05T14:59:55.450Z,9.48
2024-03-05T15:03:59.219Z,9.25
2024-03-05T15:08:01.877Z,9.16
2024-03-05T15:12:04.891Z,8.97
2024-03-05T15:16:09.034Z,8.71
2024-03-05T15:20:14.263Z,8.62
2024-03-05T15:24:17.154Z,8.59
2024-03-05T15:28:19.779Z,8.45
2024-03-05T15:32:22.364Z,8.40
2024-03-05T15:36:27.157Z,8.49
2024-03-05T15:40:29.723Z,8.51
2024-03-05T15:44:32.242Z,8.47
2024-03-05T15:48:34.803Z,8.35
2024-03-05T15:52:38.727Z,8.29
2024-03-05T15:56:57.733Z,8.20
2024-03-05T16:00:59.327Z,8.21
2024-03-05T16:05:17.186Z,8.05
2024-03-05T16:09:25.533Z,8.04
2024-03-05T16:13:30.376Z,7.96
2024-03-05T16:17:33.653Z,7.92
2024-03-05T16:21:37.211Z,7.98
2024-03-05T16:25:41.611Z,7.92
2024-03-05T16:29:44.234Z,7.79
2024-03-05T16:33:46.758Z,7.92
2024-03-05T16:37:50.678Z,7.79
2024-03-05T16:41:54.531Z,7.69
2024-03-05T16:45:58.419Z,7.61
2024-03-05T16:50:01.007Z,7.63
2024-03-05T16:54:04.170Z,7.69
2024-03-05T16:58:12.209Z,7.62
2024-03-05T17:02:18.136Z,7.56
2024-03-05T17:06:23.271Z,7.47
2024-03-05T17:10:28.014Z,7.45
2024-03-05T17:14:32.368Z,7.38
2024-03-05T17:18:35.636Z,7.44
2024-03-05T17:22:42.669Z,7.52
2024-03-05T17:26:46.693Z,7.52
2024-03-05T17:30:50.613Z,7.50
2024-03-05T17:34:53.441Z,7.61
2024-03-05T17:38:55.996Z,7.71
2024-03-05T17:42:59.008Z,7.75
2024-03-05T17:47:02.936Z,7.83
2024-03-05T17:51:05.729Z,7.75
2024-03-05T17:55:09.480Z,7.74
2024-03-05T17:59:12.238Z,7.63
2024-03-05T18:03:16.451Z,7.50
2024-03-05T18:07:19.292Z,7.46
2024-03-05T18:11:21.898Z,7.52
2024-03-05T18:15:25.856Z,7.56
2024-03-05T18:19:30.478Z,7.44
2024-03-05T18:23:33.181Z,7.44
2024-03-05T18:27:35.836Z,7.33
2024-03-05T18:31:39.445Z,7.33
2024-03-05T18:35:43.644Z,7.31
2024-03-05T18:39:46.130Z,7.28
2024-03-05T18:43:52.842Z,7.33
2024-03-05T18:52:04.506Z,7.26
2024-03-05T18:56:07.467Z,7.12
2024-03-05T19:00:15.508Z,7.12
2024-03-05T19:04:18.453Z,7.02
2024-03-05T19:08:23.871Z,7.05
2024-03-05T19:12:26.486Z,7.14
2024-03-05T19:16:29.186Z,7.09
2024-03-05T19:20:31.752Z,7.13
2024-03-05T19:24:35.708Z,7.13
2024-03-05T19:28:41.150Z,7.08
2024-03-05T19:32:44.695Z,7.08
2024-03-05T19:36:49.748Z,7.05
2024-03-05T19:40:54.928Z,6.93
2024-03-05T19:44:58.209Z,6.85
2024-03-05T19:49:01.711Z,6.80
2024-03-05T19:53:19.887Z,6.77
2024-03-05T19:57:26.530Z,6.81
2024-03-05T20:01:31.190Z,6.71
2024-03-05T20:05:36.075Z,6.73
2024-03-05T20:09:40.763Z,6.72
2024-03-05T20:13:48.091Z,6.65
2024-03-05T20:17:51.008Z,6.72
2024-03-05T20:21:53.518Z,6.68
2024-03-05T20:25:57.149Z,6.72
2024-03-05T20:30:02.313Z,6.79
2024-03-05T20:34:10.563Z,6.76
2024-03-05T20:38:16.047Z,6.72
2024-03-05T20:42:19.111Z,6.68
2024-03-05T20:46:24.295Z,6.63
2024-03-05T20:50:29.537Z,6.54
2024-03-05T20:54:32.124Z,6.59
2024-03-05T20:58:34.749Z,6.61
2024-03-05T21:02:38.797Z,6.62
2024-03-05T21:06:41.452Z,6.63
2024-03-05T21:10:44.760Z,6.60
2024-03-05T21:14:48.068Z,6.65
2024-03-05T21:18:52.275Z,6.71
2024-03-05T21:22:55.620Z,6.69
2024-03-05T21:27:15.880Z,6.64
2024-03-05T21:31:22.142Z,6.62
2024-03-05T21:35:26.200Z,6.64
2024-03-05T21:39:30.780Z,6.66
2024-03-05T21:43:35.811Z,6.67
2024-03-05T21:47:39.003Z,6.67
2024-03-05T21:51:46.077Z,6.60
2024-03-05T21:55:49.514Z,6.57
2024-03-05T21:59:52.198Z,6.65
